LIRZ/PEG METAR and TAF weather

Enter ICAO airport designator
Station Type Date Time Source
LIRZ METAR 2019/04/18 21:50 UTC NOAA

LIRZ 182150Z AUTO 02008KT 9999 NCD 13/03 Q1025


Station Type Date Time Source
LIRZ Decoded METAR 2019/04/18 21:50 UTC NOAA

Perugia, Italy (LIRZ) 43-05N 012-30E 205M
Apr 18, 2019 - 05:50 PM EDT / 2019.04.18 2150 UTC
Wind: from the NNE (020 degrees) at 9 MPH (8 KT):0
Visibility: greater than 7 mile(s):0
Temperature: 55 F (13 C)
Dew Point: 37 F (3 C)
Relative Humidity: 50%
Pressure (altimeter): 30.27 in. Hg (1025 hPa)
ob: LIRZ 182150Z AUTO 02008KT 9999 NCD 13/03 Q1025
cycle: 22

Station Type Date Time Source
LIRZ TAF 2019/04/18 18:21 UTC NOAA

TAF TAF LIRZ 181700Z 1818/1918 05010KT CAVOK
BECMG 1819/1821 VRB05KT
BECMG 1908/1910 03012KT

Example: see airport list